Time;durP1;ratioP1;P1;durP2;ratioP2;P2;SDS_P1;SDS_P2;PMS_P1;PMS_P2;Temp;Humidity;BMP_temperature;BMP_pressure;BME280_temperature;BME280_humidity;BME280_pressure;Samples;Min_cycle;Max_cycle;Signal;HPM_P1;HPM_P2
2023/12/15 00:01:54;;;;;;;38.10;13.60;;;;;;;1.27;100.00;101056.21;110248;1279;23442;-75
2023/12/15 00:04:45;;;;;;;38.40;13.90;;;;;;;1.28;100.00;101054.49;110178;1279;22267;-76
2023/12/15 00:07:37;;;;;;;29.70;11.50;;;;;;;1.29;100.00;101056.45;110277;1279;22095;-75
2023/12/15 00:10:27;;;;;;;34.90;12.60;;;;;;;1.31;100.00;101062.81;110220;1277;23295;-75
2023/12/15 00:13:18;;;;;;;35.70;14.40;;;;;;;1.31;100.00;101061.08;110217;1276;22578;-74
2023/12/15 00:16:10;;;;;;;36.20;14.30;;;;;;;1.31;100.00;101063.13;110212;1276;22190;-74
2023/12/15 00:19:01;;;;;;;44.60;14.80;;;;;;;1.32;100.00;101066.44;110255;1276;22226;-74
2023/12/15 00:21:52;;;;;;;37.50;14.80;;;;;;;1.32;100.00;101070.05;110237;1269;22367;-74
2023/12/15 00:24:42;;;;;;;34.50;14.20;;;;;;;1.32;100.00;101078.38;110255;1276;22158;-77
2023/12/15 00:27:32;;;;;;;;;;;;;;;1.33;100.00;101086.39;110254;1276;22361;-77
2023/12/15 00:30:23;;;;;;;34.60;12.40;;;;;;;1.29;100.00;101091.65;110248;1276;22185;-75
2023/12/15 00:33:14;;;;;;;36.20;14.90;;;;;;;1.27;100.00;101097.86;110231;1279;22256;-77
2023/12/15 00:36:05;;;;;;;31.40;13.10;;;;;;;1.28;100.00;101102.74;110230;1279;22102;-76
2023/12/15 00:38:56;;;;;;;37.50;14.20;;;;;;;1.28;100.00;101107.46;110252;1279;22254;-76
2023/12/15 00:41:47;;;;;;;35.50;14.10;;;;;;;1.27;100.00;101112.34;110168;1279;22977;-75
2023/12/15 00:44:38;;;;;;;37.50;13.40;;;;;;;1.26;100.00;101110.77;110246;1272;23030;-75
2023/12/15 00:47:28;;;;;;;;;;;;;;;1.25;100.00;101112.57;110242;1273;22340;-75
2023/12/15 00:50:18;;;;;;;33.00;13.80;;;;;;;1.24;100.00;101119.95;110153;1273;22078;-75
2023/12/15 00:53:09;;;;;;;34.00;13.50;;;;;;;1.20;100.00;101126.09;110210;1272;22184;-75
2023/12/15 00:56:01;;;;;;;32.60;13.40;;;;;;;1.20;100.00;101126.73;110266;1264;22252;-75
2023/12/15 00:58:51;;;;;;;37.70;14.20;;;;;;;1.19;100.00;101133.71;110220;1279;22868;-76
2023/12/15 01:01:40;;;;;;;;;;;;;;;1.18;100.00;101140.00;110268;1279;22306;-75
2023/12/15 01:04:31;;;;;;;39.40;13.60;;;;;;;1.17;100.00;101141.58;110266;1270;22161;-75
2023/12/15 01:07:23;;;;;;;37.30;15.00;;;;;;;1.15;100.00;101145.42;110238;1277;22842;-74
2023/12/15 01:10:14;;;;;;;33.90;13.80;;;;;;;1.14;100.00;101149.90;110251;1274;22980;-74
2023/12/15 01:13:03;;;;;;;;;;;;;;;1.14;100.00;101151.16;110242;1276;22308;-76
2023/12/15 01:15:54;;;;;;;36.50;12.90;;;;;;;1.12;100.00;101164.05;110243;1275;22336;-75
2023/12/15 01:18:45;;;;;;;35.00;14.00;;;;;;;1.12;100.00;101160.59;110264;1277;22243;-76
2023/12/15 01:21:36;;;;;;;41.30;16.50;;;;;;;1.12;100.00;101166.17;110237;1271;22238;-75
2023/12/15 01:24:27;;;;;;;43.20;15.10;;;;;;;1.13;100.00;101174.66;110177;1270;22467;-76
2023/12/15 01:27:17;;;;;;;70.40;28.20;;;;;;;1.14;100.00;101179.46;110233;1274;22917;-76
2023/12/15 01:30:08;;;;;;;;;;;;;;;1.14;100.00;101179.77;110245;1276;22363;-74
2023/12/15 01:32:58;;;;;;;62.30;25.60;;;;;;;1.13;100.00;101190.36;110236;1276;22850;-75
2023/12/15 01:35:49;;;;;;;53.30;22.70;;;;;;;1.14;100.00;101201.21;110217;1273;22126;-77
2023/12/15 01:38:40;;;;;;;46.70;18.00;;;;;;;1.14;100.00;101198.87;110206;1276;22073;-75
2023/12/15 01:41:31;;;;;;;37.70;15.40;;;;;;;1.14;100.00;101202.70;110234;1273;22466;-75
2023/12/15 01:44:22;;;;;;;39.20;14.90;;;;;;;1.12;100.00;101206.80;110224;1273;22172;-75
2023/12/15 01:47:17;;;;;;;36.90;14.90;;;;;;;1.11;100.00;101204.28;110238;1273;22273;-76
2023/12/15 01:50:10;;;;;;;43.30;16.10;;;;;;;1.10;100.00;101207.02;110260;1272;22148;-77
2023/12/15 01:53:01;;;;;;;34.70;14.90;;;;;;;1.10;100.00;101213.45;110187;1279;22206;-76
2023/12/15 01:55:51;;;;;;;33.90;14.50;;;;;;;1.09;100.00;101217.00;110257;1279;23259;-77
2023/12/15 01:58:41;;;;;;;;;;;;;;;1.09;100.00;101214.80;110289;1276;22407;-75
2023/12/15 02:01:31;;;;;;;37.70;16.40;;;;;;;1.08;100.00;101221.32;110244;1273;22176;-76
2023/12/15 02:04:22;;;;;;;36.80;14.50;;;;;;;1.07;100.00;101223.36;110204;1274;22191;-76
2023/12/15 02:07:11;;;;;;;;;;;;;;;1.06;100.00;101223.83;110269;1271;23016;-75
2023/12/15 02:10:03;;;;;;;36.70;14.40;;;;;;;1.05;100.00;101230.59;110229;1274;22211;-75
2023/12/15 02:12:54;;;;;;;39.80;16.20;;;;;;;1.05;100.00;101230.90;110241;1273;23053;-76
2023/12/15 02:15:45;;;;;;;33.70;14.50;;;;;;;1.06;100.00;101231.60;110225;1273;22258;-75
2023/12/15 02:18:36;;;;;;;35.30;14.40;;;;;;;1.12;100.00;101234.21;110246;1276;22126;-77
2023/12/15 02:21:27;;;;;;;35.60;15.40;;;;;;;1.14;100.00;101241.52;110236;1273;22183;-76
2023/12/15 02:24:19;;;;;;;40.10;16.90;;;;;;;1.17;100.00;101236.73;110274;1273;22106;-75
2023/12/15 02:27:10;;;;;;;35.00;14.40;;;;;;;1.19;100.00;101239.57;110181;1279;22171;-75
2023/12/15 02:30:01;;;;;;;36.70;15.30;;;;;;;1.20;100.00;101240.91;110256;1275;22238;-75
2023/12/15 02:32:50;;;;;;;;;;;;;;;1.21;100.00;101239.95;110275;1273;23403;-75
2023/12/15 02:35:41;;;;;;;37.40;13.90;;;;;;;1.20;100.00;101234.39;110235;1279;22153;-76
2023/12/15 02:38:32;;;;;;;36.10;15.00;;;;;;;1.21;100.00;101238.63;110249;1273;22183;-75
2023/12/15 02:41:23;;;;;;;34.80;13.70;;;;;;;1.21;100.00;101240.27;110237;1272;22297;-76
2023/12/15 02:44:14;;;;;;;37.70;14.50;;;;;;;1.21;100.00;101241.84;110222;1271;22091;-76
2023/12/15 02:47:05;;;;;;;33.70;14.10;;;;;;;1.18;100.00;101244.52;110253;1277;22078;-80
2023/12/15 02:49:56;;;;;;;38.00;14.70;;;;;;;1.14;100.00;101244.52;110237;1279;22144;-76
2023/12/15 02:52:46;;;;;;;33.80;12.90;;;;;;;1.11;100.00;101245.69;110250;1261;22167;-77
2023/12/15 02:55:37;;;;;;;35.20;13.30;;;;;;;1.10;100.00;101248.11;110251;1279;22414;-78
2023/12/15 02:58:28;;;;;;;32.50;13.90;;;;;;;1.09;100.00;101257.45;110242;1279;23480;-76
2023/12/15 03:01:20;;;;;;;39.10;13.30;;;;;;;1.06;100.00;101258.48;110241;1274;22955;-74
2023/12/15 03:04:11;;;;;;;34.20;14.00;;;;;;;1.06;100.00;101263.66;110228;1277;22229;-76
2023/12/15 03:07:01;;;;;;;32.60;13.10;;;;;;;1.03;100.00;101274.89;110261;1279;22236;-77
2023/12/15 03:09:52;;;;;;;33.20;13.50;;;;;;;1.01;100.00;101279.61;110236;1273;22096;-74
2023/12/15 03:12:43;;;;;;;36.00;14.00;;;;;;;0.98;100.00;101284.31;110214;1276;22139;-75
2023/12/15 03:15:34;;;;;;;38.20;13.80;;;;;;;0.96;100.00;101287.20;110244;1274;22105;-75
2023/12/15 03:18:23;;;;;;;;;;;;;;;0.95;100.00;101291.05;110250;1272;22753;-74
2023/12/15 03:21:14;;;;;;;32.60;13.50;;;;;;;0.95;100.00;101294.13;110206;1279;22110;-75
2023/12/15 03:24:05;;;;;;;36.20;13.60;;;;;;;0.95;100.00;101297.27;110257;1274;23431;-77
2023/12/15 03:26:56;;;;;;;34.30;13.00;;;;;;;0.96;100.00;101301.59;110238;1272;22182;-74
2023/12/15 03:29:47;;;;;;;34.80;14.80;;;;;;;0.98;100.00;101302.62;110243;1267;22940;-75
2023/12/15 03:32:36;;;;;;;;;;;;;;;0.99;100.00;101306.62;110248;1273;22613;-74
2023/12/15 03:35:27;;;;;;;36.20;13.70;;;;;;;0.98;100.00;101305.83;110192;1269;22165;-76
2023/12/15 03:38:18;;;;;;;32.70;12.70;;;;;;;1.00;100.00;101308.98;110227;1271;22988;-75
2023/12/15 03:41:12;;;;;;;36.90;13.50;;;;;;;1.03;100.00;101306.00;110256;1271;22486;-77
2023/12/15 03:44:03;;;;;;;32.30;12.60;;;;;;;1.03;100.00;101305.70;110206;1279;22202;-75
2023/12/15 03:46:54;;;;;;;37.50;14.50;;;;;;;1.02;100.00;101312.68;110184;1279;22162;-77
2023/12/15 03:49:45;;;;;;;33.30;13.90;;;;;;;1.01;100.00;101318.10;110258;1279;22269;-74
2023/12/15 03:52:36;;;;;;;33.90;12.50;;;;;;;1.01;100.00;101322.89;110222;1279;22145;-76
2023/12/15 03:55:27;;;;;;;35.60;12.20;;;;;;;1.00;100.00;101328.63;110251;1264;22298;-74
2023/12/15 03:58:16;;;;;;;;;;;;;;;1.01;100.00;101335.77;110319;1276;22409;-74
2023/12/15 04:01:08;;;;;;;34.00;12.70;;;;;;;1.00;100.00;101341.52;110195;1274;22137;-74
2023/12/15 04:03:59;;;;;;;31.70;11.60;;;;;;;1.00;100.00;101342.21;110215;1273;23142;-76
2023/12/15 04:06:49;;;;;;;34.70;14.40;;;;;;;0.99;100.00;101353.84;110167;1279;23052;-77
2023/12/15 04:09:40;;;;;;;35.10;13.20;;;;;;;0.97;100.00;101356.49;110155;1270;22125;-75
2023/12/15 04:12:31;;;;;;;37.70;13.70;;;;;;;0.97;100.00;101358.70;110177;1274;23035;-75
2023/12/15 04:15:22;;;;;;;33.70;14.00;;;;;;;0.98;100.00;101363.41;110174;1273;22156;-74
2023/12/15 04:18:13;;;;;;;33.40;12.70;;;;;;;0.98;100.00;101369.23;110184;1272;22950;-76
2023/12/15 04:21:04;;;;;;;36.00;14.70;;;;;;;0.98;100.00;101375.60;110185;1273;22151;-74
2023/12/15 04:23:55;;;;;;;34.80;14.10;;;;;;;0.97;100.00;101379.36;110169;1277;22227;-76
2023/12/15 04:26:46;;;;;;;34.30;13.30;;;;;;;0.96;100.00;101383.45;110180;1276;22121;-77
2023/12/15 04:29:35;;;;;;;;;;;;;;;0.95;100.00;101389.23;110183;1274;22362;-77
2023/12/15 04:32:26;;;;;;;33.60;12.80;;;;;;;0.92;100.00;101395.74;110161;1272;22981;-75
2023/12/15 04:35:18;;;;;;;35.90;13.60;;;;;;;0.94;100.00;101398.27;110140;1278;23091;-75
2023/12/15 04:38:10;;;;;;;37.50;13.40;;;;;;;0.94;100.00;101398.66;110174;1273;22257;-78
2023/12/15 04:41:01;;;;;;;36.00;14.30;;;;;;;0.96;100.00;101401.52;110171;1279;22152;-76
2023/12/15 04:43:52;;;;;;;34.90;14.60;;;;;;;0.98;100.00;101403.33;110173;1279;22168;-74
2023/12/15 04:46:43;;;;;;;32.80;14.70;;;;;;;0.98;100.00;101413.92;110167;1279;22180;-75
2023/12/15 04:49:34;;;;;;;35.50;13.50;;;;;;;0.96;100.00;101419.73;110179;1273;22167;-76
2023/12/15 04:52:24;;;;;;;37.30;14.80;;;;;;;0.95;100.00;101425.06;110197;1274;22221;-77
2023/12/15 04:55:15;;;;;;;40.40;14.80;;;;;;;0.93;100.00;101427.74;110126;1276;22140;-75
2023/12/15 04:58:07;;;;;;;39.80;17.20;;;;;;;0.92;100.00;101431.19;110233;1274;22278;-75
2023/12/15 05:00:58;;;;;;;40.90;17.10;;;;;;;0.91;100.00;101434.08;110184;1267;22215;-75
2023/12/15 05:03:47;;;;;;;;;;;;;;;0.91;100.00;101439.57;110166;1276;22425;-77
2023/12/15 05:06:38;;;;;;;36.10;15.00;;;;;;;0.90;100.00;101442.71;110190;1272;22153;-75
2023/12/15 05:09:29;;;;;;;38.80;14.70;;;;;;;0.88;100.00;101448.91;110182;1279;22317;-74
2023/12/15 05:12:20;;;;;;;38.00;15.20;;;;;;;0.88;100.00;101453.15;110181;1274;22305;-76
2023/12/15 05:15:11;;;;;;;40.10;15.60;;;;;;;0.88;100.00;101460.06;110202;1273;22180;-76
2023/12/15 05:18:02;;;;;;;36.20;13.60;;;;;;;0.88;100.00;101456.91;110209;1273;22780;-75
2023/12/15 05:20:53;;;;;;;35.40;15.00;;;;;;;0.87;100.00;101456.52;110180;1267;22669;-79
2023/12/15 05:23:44;;;;;;;35.30;13.40;;;;;;;0.86;100.00;101458.16;110199;1276;22131;-75
2023/12/15 05:26:35;;;;;;;38.00;14.00;;;;;;;0.86;100.00;101462.33;110185;1280;22249;-75
2023/12/15 05:29:26;;;;;;;35.30;14.00;;;;;;;0.86;100.00;101465.48;110198;1273;22111;-75
2023/12/15 05:32:17;;;;;;;36.50;14.60;;;;;;;0.88;100.00;101466.83;110170;1273;22255;-75
2023/12/15 05:35:09;;;;;;;40.20;14.70;;;;;;;0.91;100.00;101466.83;110175;1273;22248;-75
2023/12/15 05:38:00;;;;;;;34.90;13.80;;;;;;;0.92;100.00;101469.98;110196;1280;22225;-76
2023/12/15 05:40:52;;;;;;;34.00;13.40;;;;;;;0.92;100.00;101474.38;110192;1280;22130;-75
2023/12/15 05:43:44;;;;;;;37.30;14.00;;;;;;;0.94;100.00;101479.27;110231;1280;22705;-74
2023/12/15 05:46:36;;;;;;;33.40;12.40;;;;;;;0.95;100.00;101481.48;110164;1280;22345;-76
2023/12/15 05:49:27;;;;;;;38.30;14.40;;;;;;;0.95;100.00;101484.47;110173;1276;22085;-78
2023/12/15 05:52:18;;;;;;;34.20;12.90;;;;;;;0.96;100.00;101491.23;110181;1280;22203;-76
2023/12/15 05:55:10;;;;;;;36.70;14.90;;;;;;;0.96;100.00;101491.46;110186;1273;22093;-75
2023/12/15 05:58:01;;;;;;;35.20;14.60;;;;;;;0.95;100.00;101498.29;110207;1274;22178;-77
2023/12/15 06:00:52;;;;;;;40.40;14.90;;;;;;;0.94;100.00;101503.70;110190;1277;22310;-76
2023/12/15 06:03:43;;;;;;;41.10;17.50;;;;;;;0.95;100.00;101511.17;110185;1276;22157;-74
2023/12/15 06:06:32;;;;;;;;;;;;;;;0.94;100.00;101512.34;110142;1273;22325;-78
2023/12/15 06:09:23;;;;;;;41.10;16.50;;;;;;;0.94;100.00;101517.52;110129;1279;22170;-74
2023/12/15 06:12:15;;;;;;;43.50;19.90;;;;;;;0.94;100.00;101518.30;110102;1274;22206;-75
2023/12/15 06:15:09;;;;;;;54.70;19.90;;;;;;;0.96;100.00;101518.08;110114;1281;22521;-76
2023/12/15 06:18:00;;;;;;;53.60;20.00;;;;;;;0.96;100.00;101519.80;110117;1276;22108;-75
2023/12/15 06:20:51;;;;;;;51.10;20.20;;;;;;;0.97;100.00;101523.98;110123;1280;22516;-77
2023/12/15 06:23:40;;;;;;;;;;;;;;;1.00;100.00;101532.55;110120;1280;22407;-75
2023/12/15 06:26:31;;;;;;;49.00;17.70;;;;;;;1.00;100.00;101541.20;110113;1273;22161;-75
2023/12/15 06:29:22;;;;;;;49.00;19.60;;;;;;;0.99;100.00;101548.35;110096;1273;22121;-75
2023/12/15 06:32:15;;;;;;;42.60;15.60;;;;;;;0.99;100.00;101551.49;110102;1281;22285;-76
2023/12/15 06:35:07;;;;;;;42.00;16.70;;;;;;;0.99;100.00;101552.52;110096;1273;22957;-78
2023/12/15 06:37:59;;;;;;;40.70;16.00;;;;;;;1.02;100.00;101549.16;110166;1276;22344;-77
2023/12/15 06:40:50;;;;;;;38.40;15.40;;;;;;;1.05;100.00;101558.85;110160;1278;22129;-74
2023/12/15 06:43:43;;;;;;;35.00;15.00;;;;;;;1.07;100.00;101566.79;110160;1281;22292;-75
2023/12/15 06:46:36;;;;;;;33.30;12.80;;;;;;;1.09;100.00;101571.60;110152;1280;22201;-76
2023/12/15 06:49:30;;;;;;;39.30;15.00;;;;;;;1.13;100.00;101576.20;110108;1273;22108;-76
2023/12/15 06:52:21;;;;;;;37.00;12.80;;;;;;;1.16;100.00;101581.71;110127;1276;22228;-76
2023/12/15 06:55:12;;;;;;;38.70;15.30;;;;;;;1.18;100.00;101581.40;110115;1273;22239;-78
2023/12/15 06:58:03;;;;;;;37.50;15.00;;;;;;;1.20;100.00;101584.56;110118;1281;22157;-75
2023/12/15 07:00:54;;;;;;;35.30;14.00;;;;;;;1.21;100.00;101589.29;110127;1280;22128;-77
2023/12/15 07:03:45;;;;;;;31.50;13.40;;;;;;;1.21;100.00;101592.51;110137;1273;22806;-77
2023/12/15 07:06:37;;;;;;;36.80;14.30;;;;;;;1.20;100.00;101599.41;110219;1279;22118;-75
2023/12/15 07:09:27;;;;;;;40.00;15.80;;;;;;;1.19;100.00;101604.20;110143;1280;22166;-75
2023/12/15 07:12:19;;;;;;;37.50;14.80;;;;;;;1.20;100.00;101601.38;110195;1272;22469;-76
2023/12/15 07:15:10;;;;;;;38.30;15.20;;;;;;;1.22;100.00;101599.98;110205;1277;22918;-78
2023/12/15 07:18:01;;;;;;;34.20;14.90;;;;;;;1.24;100.00;101603.13;110204;1276;22134;-75
2023/12/15 07:20:52;;;;;;;37.20;16.20;;;;;;;1.22;100.00;101608.30;110230;1276;22173;-76
2023/12/15 07:23:41;;;;;;;;;;;;;;;1.21;100.00;101607.67;110202;1274;22324;-75
2023/12/15 07:26:32;;;;;;;36.10;14.10;;;;;;;1.21;100.00;101613.65;110183;1273;22209;-77
2023/12/15 07:29:24;;;;;;;36.80;15.20;;;;;;;1.23;100.00;101614.36;110184;1273;22184;-76
2023/12/15 07:32:15;;;;;;;36.50;14.40;;;;;;;1.26;100.00;101622.64;110146;1279;22323;-75
2023/12/15 07:35:08;;;;;;;40.70;17.10;;;;;;;1.26;100.00;101622.56;110172;1280;22184;-77
2023/12/15 07:37:59;;;;;;;39.70;17.40;;;;;;;1.28;100.00;101623.44;110209;1263;22166;-76
2023/12/15 07:40:53;;;;;;;;;;;;;;;1.30;100.00;101628.27;110231;1273;22377;-75
2023/12/15 07:43:44;;;;;;;41.10;16.20;;;;;;;1.31;100.00;101632.36;110192;1280;22136;-74
2023/12/15 07:46:35;;;;;;;40.80;16.10;;;;;;;1.33;100.00;101635.73;110174;1280;22157;-75
2023/12/15 07:49:26;;;;;;;39.60;16.10;;;;;;;1.35;100.00;101643.30;110186;1276;22606;-77
2023/12/15 07:52:17;;;;;;;43.70;17.10;;;;;;;1.39;100.00;101646.17;110198;1273;22304;-75
2023/12/15 07:55:09;;;;;;;40.20;16.90;;;;;;;1.41;100.00;101652.61;110191;1273;22821;-75
2023/12/15 07:58:00;;;;;;;42.80;18.00;;;;;;;1.43;100.00;101656.80;110193;1278;22882;-75
2023/12/15 08:00:51;;;;;;;;;;;;;;;1.46;100.00;101663.11;110211;1274;22312;-78
2023/12/15 08:03:42;;;;;;;41.10;16.10;;;;;;;1.47;100.00;101670.66;110206;1279;22118;-76
2023/12/15 08:06:37;;;;;;;38.60;16.20;;;;;;;1.47;100.00;101679.39;110116;1280;22301;-75
2023/12/15 08:09:28;;;;;;;42.40;17.70;;;;;;;1.46;100.00;101678.44;110137;1280;22203;-76
2023/12/15 08:12:19;;;;;;;37.50;15.20;;;;;;;1.47;100.00;101682.77;110130;1273;22170;-76
2023/12/15 08:15:11;;;;;;;41.10;16.50;;;;;;;1.47;100.00;101682.62;110140;1278;22217;-75
2023/12/15 08:18:02;;;;;;;42.90;16.80;;;;;;;1.48;100.00;101684.27;110140;1280;22066;-75
2023/12/15 08:20:53;;;;;;;38.50;15.20;;;;;;;1.48;100.00;101688.68;110127;1273;22858;-75
2023/12/15 08:23:44;;;;;;;41.30;16.80;;;;;;;1.49;100.00;101699.70;110117;1280;22560;-76
2023/12/15 08:26:34;;;;;;;41.70;16.70;;;;;;;1.50;100.00;101703.08;110124;1273;22560;-76
2023/12/15 08:29:25;;;;;;;43.20;16.90;;;;;;;1.52;100.00;101708.38;110150;1270;22107;-76
2023/12/15 08:32:16;;;;;;;40.70;17.10;;;;;;;1.55;100.00;101713.34;110130;1273;23455;-74
2023/12/15 08:35:09;;;;;;;45.90;17.20;;;;;;;1.58;100.00;101718.64;110130;1274;22968;-77
2023/12/15 08:38:00;;;;;;;44.40;18.00;;;;;;;1.60;100.00;101718.41;110122;1277;22076;-75
2023/12/15 08:40:52;;;;;;;41.30;16.80;;;;;;;1.61;100.00;101717.32;110147;1280;22960;-74
2023/12/15 08:43:43;;;;;;;41.80;16.80;;;;;;;1.67;100.00;101715.30;110149;1281;22108;-76
2023/12/15 08:46:35;;;;;;;42.20;17.90;;;;;;;1.70;100.00;101725.10;110102;1270;22119;-76
2023/12/15 08:49:27;;;;;;;40.40;17.10;;;;;;;1.73;100.00;101730.92;110127;1273;22927;-75
2023/12/15 08:52:18;;;;;;;49.40;18.00;;;;;;;1.76;100.00;101732.77;110130;1274;22280;-75
2023/12/15 08:55:09;;;;;;;43.70;17.60;;;;;;;1.79;100.00;101731.75;110134;1281;22923;-76
2023/12/15 08:58:00;;;;;;;41.70;18.70;;;;;;;1.83;100.00;101732.73;110105;1281;22156;-75
2023/12/15 09:00:51;;;;;;;40.20;16.90;;;;;;;1.87;100.00;101736.60;110126;1279;22107;-74
2023/12/15 09:03:42;;;;;;;43.20;18.90;;;;;;;1.89;100.00;101733.39;110138;1279;22204;-74
2023/12/15 10:31:51;;;;;;;37.20;14.00;;;;;;;2.67;100.00;101798.29;110167;1280;22173;-74
2023/12/15 10:34:42;;;;;;;32.70;12.90;;;;;;;2.70;100.00;101800.34;110047;1280;142636;-76
2023/12/15 10:37:34;;;;;;;35.40;14.70;;;;;;;2.73;100.00;101806.02;110198;1274;22139;-74
2023/12/15 10:40:25;;;;;;;35.20;15.30;;;;;;;2.77;100.00;101806.68;110222;1276;22580;-75
2023/12/15 10:43:17;;;;;;;33.60;12.70;;;;;;;2.80;100.00;101803.06;110195;1279;22600;-75
2023/12/15 10:46:11;;;;;;;34.90;12.00;;;;;;;2.83;100.00;101798.90;110218;1274;22315;-75
2023/12/15 10:49:03;;;;;;;36.20;13.90;;;;;;;2.87;99.86;101804.05;110197;1276;22254;-75
2023/12/15 10:51:54;;;;;;;29.80;12.10;;;;;;;2.90;99.66;101806.89;110154;1278;22094;-75
2023/12/15 10:54:48;;;;;;;35.60;13.60;;;;;;;2.93;99.38;101802.71;110181;1280;22062;-75
2023/12/15 10:57:39;;;;;;;34.50;13.00;;;;;;;2.95;99.54;101802.02;110163;1280;22916;-74
2023/12/15 11:00:31;;;;;;;35.50;12.60;;;;;;;2.97;99.41;101801.63;110236;1274;22942;-74
2023/12/15 11:03:23;;;;;;;32.90;12.80;;;;;;;2.99;99.45;101796.36;110189;1276;22103;-74
2023/12/15 11:06:14;;;;;;;32.60;12.40;;;;;;;3.04;99.61;101798.73;110199;1274;22163;-75
2023/12/15 11:09:05;;;;;;;31.20;12.70;;;;;;;3.08;99.61;101795.19;110174;1274;22139;-75
2023/12/15 11:12:38;;;;;;;30.10;11.00;;;;;;;3.13;99.49;101794.02;110194;1273;22087;-75
2023/12/15 11:15:30;;;;;;;27.20;10.70;;;;;;;3.17;98.99;101802.31;110208;1276;22197;-76
2023/12/15 11:18:21;;;;;;;26.40;9.00;;;;;;;3.20;98.86;101801.92;110179;1276;22405;-76
2023/12/15 11:21:13;;;;;;;29.10;9.10;;;;;;;3.24;98.74;101803.59;110188;1274;22493;-79
2023/12/15 11:24:07;;;;;;;28.30;9.40;;;;;;;3.27;98.20;101806.66;110159;1274;22143;-75
2023/12/15 11:26:58;;;;;;;34.00;11.60;;;;;;;3.30;98.16;101811.56;110173;1276;22799;-75
2023/12/15 11:29:49;;;;;;;31.00;10.90;;;;;;;3.35;98.43;101815.60;110195;1273;22180;-76
2023/12/15 11:32:38;;;;;;;;;;;;;;;3.41;98.43;101814.50;110168;1276;23194;-75
2023/12/15 11:35:34;;;;;;;26.80;9.10;;;;;;;3.45;98.03;101820.41;110182;1274;22474;-76
2023/12/15 11:38:26;;;;;;;27.80;9.30;;;;;;;3.49;98.10;101820.42;110152;1273;22289;-75
2023/12/15 11:41:19;;;;;;;19.70;6.50;;;;;;;3.52;97.75;101820.20;110196;1270;22606;-76
2023/12/15 11:44:10;;;;;;;26.50;8.20;;;;;;;3.53;97.28;101818.22;110215;1274;22375;-76
2023/12/15 11:47:03;;;;;;;22.60;7.60;;;;;;;3.56;97.74;101816.80;110225;1280;22683;-76
2023/12/15 11:49:54;;;;;;;24.50;8.80;;;;;;;3.60;97.63;101816.09;110168;1280;22153;-76
2023/12/15 11:52:44;;;;;;;20.40;6.80;;;;;;;3.63;97.01;101816.17;110197;1280;22177;-76
2023/12/15 11:55:35;;;;;;;24.70;7.70;;;;;;;3.64;96.91;101812.30;110204;1279;22952;-75
2023/12/15 11:58:26;;;;;;;28.50;8.40;;;;;;;3.66;96.95;101814.44;110162;1278;22174;-75
2023/12/15 12:01:17;;;;;;;24.30;6.50;;;;;;;3.67;96.91;101819.19;110242;1274;23507;-75
2023/12/15 12:04:19;;;;;;;19.40;6.70;;;;;;;3.68;96.48;101819.58;110135;1279;22112;-75
2023/12/15 12:07:11;;;;;;;21.70;6.70;;;;;;;3.68;96.50;101816.34;110194;1274;22378;-76
2023/12/15 12:10:06;;;;;;;19.40;6.10;;;;;;;3.68;96.21;101818.24;110202;1274;22133;-75
2023/12/15 12:12:57;;;;;;;19.10;7.60;;;;;;;3.67;95.24;101816.73;110213;1273;22105;-76
2023/12/15 12:15:53;;;;;;;23.90;8.80;;;;;;;3.64;95.32;101819.48;110202;1280;22097;-75
2023/12/15 12:18:46;;;;;;;23.30;7.50;;;;;;;3.63;95.86;101819.09;110195;1273;22103;-75
2023/12/15 12:21:37;;;;;;;24.00;7.90;;;;;;;3.61;95.89;101814.35;110254;1273;22183;-77
2023/12/15 12:24:29;;;;;;;28.50;9.40;;;;;;;3.60;96.30;101814.75;110180;1274;22124;-76
2023/12/15 12:27:20;;;;;;;21.70;7.90;;;;;;;3.59;96.32;101811.59;110187;1273;22214;-76
2023/12/15 12:30:15;;;;;;;23.80;8.20;;;;;;;3.59;96.42;101819.80;110211;1269;22908;-76
2023/12/15 12:33:06;;;;;;;24.10;9.00;;;;;;;3.58;96.54;101820.44;110194;1262;22251;-75
2023/12/15 12:35:56;;;;;;;28.80;10.60;;;;;;;3.57;96.76;101825.48;110166;1269;23243;-76
2023/12/15 12:38:45;;;;;;;;;;;;;;;3.57;96.97;101828.88;110157;1279;22325;-75
2023/12/15 12:41:37;;;;;;;29.80;11.50;;;;;;;3.56;97.01;101829.42;110206;1277;22152;-75
2023/12/15 12:44:26;;;;;;;;;;;;;;;3.55;97.10;101833.20;110210;1276;23257;-76
2023/12/15 12:47:17;;;;;;;31.10;11.60;;;;;;;3.53;97.29;101834.16;110175;1274;22280;-74
2023/12/15 12:50:11;;;;;;;30.60;12.60;;;;;;;3.53;97.54;101828.64;110183;1273;23196;-76
2023/12/15 12:53:04;;;;;;;34.20;12.60;;;;;;;3.53;97.42;101826.59;110144;1280;22182;-76
2023/12/15 12:55:55;;;;;;;32.00;11.60;;;;;;;3.53;97.40;101829.66;110194;1264;22164;-76
2023/12/15 12:58:46;;;;;;;31.30;11.80;;;;;;;3.52;97.48;101832.10;110199;1280;22278;-75
2023/12/15 13:01:39;;;;;;;30.40;11.60;;;;;;;3.52;97.45;101838.02;110164;1280;22824;-75
2023/12/15 13:04:30;;;;;;;30.90;11.50;;;;;;;3.51;97.11;101845.13;110175;1273;22940;-75
2023/12/15 13:07:21;;;;;;;26.80;9.70;;;;;;;3.49;96.79;101848.83;110187;1276;22194;-75
2023/12/15 13:10:14;;;;;;;27.60;10.40;;;;;;;3.47;96.37;101845.73;110133;1279;22273;-79
2023/12/15 13:13:06;;;;;;;26.00;9.10;;;;;;;3.45;96.34;101847.23;110192;1280;22223;-75
2023/12/15 13:15:57;;;;;;;24.60;8.90;;;;;;;3.43;95.91;101845.11;110175;1280;22153;-74
2023/12/15 13:18:48;;;;;;;23.60;8.70;;;;;;;3.41;95.41;101835.41;110199;1274;22159;-75
2023/12/15 13:21:39;;;;;;;22.80;9.70;;;;;;;3.40;95.64;101836.66;110226;1276;22091;-74
2023/12/15 13:24:30;;;;;;;25.20;9.50;;;;;;;3.41;95.94;101838.88;110161;1274;22270;-75
2023/12/15 13:27:21;;;;;;;26.90;9.20;;;;;;;3.41;95.62;101844.55;110155;1277;22367;-75
2023/12/15 13:30:13;;;;;;;26.10;9.40;;;;;;;3.40;95.77;101846.37;110176;1279;22184;-78
2023/12/15 13:33:04;;;;;;;29.40;10.20;;;;;;;3.36;95.42;101856.29;110184;1276;22165;-75
2023/12/15 13:35:55;;;;;;;24.70;9.30;;;;;;;3.35;95.71;101859.29;110193;1270;22094;-75
2023/12/15 13:38:49;;;;;;;28.80;11.20;;;;;;;3.33;95.78;101867.26;110186;1276;22128;-76
2023/12/15 13:41:41;;;;;;;30.30;11.70;;;;;;;3.34;95.98;101874.66;110164;1274;22178;-75
2023/12/15 13:44:32;;;;;;;27.20;10.70;;;;;;;3.34;95.81;101880.66;110183;1279;22095;-75
2023/12/15 13:47:23;;;;;;;26.60;10.80;;;;;;;3.33;95.63;101885.86;110218;1274;22293;-76
2023/12/15 13:50:41;;;;;;;31.10;11.00;;;;;;;3.34;95.98;101889.73;110184;1274;22282;-75
2023/12/15 13:53:39;;;;;;;27.50;11.20;;;;;;;3.35;95.61;101889.66;110147;1277;22129;-76
2023/12/15 13:56:30;;;;;;;24.30;9.40;;;;;;;3.34;95.41;101898.00;110178;1274;22266;-75
2023/12/15 13:59:21;;;;;;;21.90;7.10;;;;;;;3.32;95.07;101897.84;110173;1273;22128;-75
2023/12/15 14:02:12;;;;;;;24.20;9.10;;;;;;;3.30;95.17;101889.87;110192;1274;22911;-78
2023/12/15 14:05:03;;;;;;;23.70;8.90;;;;;;;3.29;95.38;101891.28;110242;1279;22199;-76
2023/12/15 14:07:54;;;;;;;19.70;7.70;;;;;;;3.27;95.43;101894.28;110170;1280;22051;-75
2023/12/15 14:10:43;;;;;;;;;;;;;;;3.26;95.41;101895.45;110212;1270;22371;-76
2023/12/15 14:13:34;;;;;;;20.80;6.40;;;;;;;3.23;95.30;101899.80;110142;1280;22858;-76
2023/12/15 14:16:24;;;;;;;22.10;8.10;;;;;;;3.22;95.43;101890.39;110176;1277;22979;-76
2023/12/15 14:19:15;;;;;;;19.90;7.90;;;;;;;3.21;95.32;101895.77;110157;1278;22240;-75
2023/12/15 14:22:07;;;;;;;21.70;8.30;;;;;;;3.20;95.51;101902.85;110155;1276;22185;-77
2023/12/15 14:24:58;;;;;;;27.80;10.20;;;;;;;3.17;95.37;101908.35;110166;1277;22167;-76
2023/12/15 14:27:49;;;;;;;27.10;10.50;;;;;;;3.16;95.57;101912.14;110182;1273;22183;-75